createdAt,value
2018-01-23T00:01:54.433Z,61.78
2018-01-23T00:04:20.230Z,58.33
2018-01-23T00:06:45.987Z,64.03
2018-01-23T00:09:11.728Z,59.10
2018-01-23T00:11:37.491Z,62.10
2018-01-23T00:14:03.243Z,58.50
2018-01-23T00:16:29.016Z,58.67
2018-01-23T00:18:54.775Z,54.70
2018-01-23T00:21:20.544Z,56.60
2018-01-23T00:23:46.294Z,57.40
2018-01-23T00:26:12.059Z,59.77
2018-01-23T00:28:37.819Z,61.20
2018-01-23T00:31:03.584Z,56.97
2018-01-23T00:33:29.330Z,55.57
2018-01-23T00:35:55.079Z,57.63
2018-01-23T00:38:20.826Z,55.57
2018-01-23T00:40:46.567Z,54.77
2018-01-23T00:43:12.322Z,54.73
2018-01-23T00:45:38.067Z,60.00
2018-01-23T00:48:03.813Z,51.47
2018-01-23T00:50:29.547Z,51.80
2018-01-23T00:52:55.295Z,51.33
2018-01-23T00:55:21.071Z,54.33
2018-01-23T00:57:46.850Z,58.43
2018-01-23T01:00:12.607Z,57.53
2018-01-23T01:02:38.388Z,53.80
2018-01-23T01:05:04.160Z,55.97
2018-01-23T01:07:29.944Z,60.30
2018-01-23T01:09:55.707Z,61.93
2018-01-23T01:12:21.496Z,59.37
2018-01-23T01:14:47.238Z,55.57
2018-01-23T01:17:13.002Z,58.63
2018-01-23T01:19:38.752Z,52.87
2018-01-23T01:22:04.530Z,55.63
2018-01-23T01:24:30.291Z,55.53
2018-01-23T01:26:56.071Z,57.97
2018-01-23T01:29:21.830Z,54.50
2018-01-23T01:31:47.597Z,57.03
2018-01-23T01:34:13.358Z,59.17
2018-01-23T01:36:39.123Z,57.20
2018-01-23T01:39:04.907Z,56.17
2018-01-23T01:41:30.673Z,56.10
2018-01-23T01:43:56.451Z,50.30
2018-01-23T01:46:22.199Z,54.03
2018-01-23T01:48:51.955Z,52.67
2018-01-23T01:51:17.735Z,53.95
2018-01-23T01:53:43.508Z,55.13
2018-01-23T01:56:09.266Z,55.63
2018-01-23T01:58:35.049Z,55.07
2018-01-23T02:01:00.804Z,54.73
2018-01-23T02:03:26.595Z,51.80
2018-01-23T02:05:52.334Z,53.57
2018-01-23T02:08:18.098Z,51.97
2018-01-23T02:10:43.873Z,52.17
2018-01-23T02:13:09.638Z,52.37
2018-01-23T02:15:35.399Z,51.93
2018-01-23T02:18:01.171Z,51.00
2018-01-23T02:20:26.931Z,50.33
2018-01-23T02:22:52.711Z,52.47
2018-01-23T02:25:18.474Z,50.33
2018-01-23T02:27:44.235Z,48.87
2018-01-23T02:30:10.015Z,48.73
2018-01-23T02:32:35.779Z,50.30
2018-01-23T02:35:01.552Z,49.83
2018-01-23T02:37:27.312Z,47.73
2018-01-23T02:39:53.100Z,48.70
2018-01-23T02:42:18.874Z,48.10
2018-01-23T02:44:44.635Z,50.30
2018-01-23T02:47:10.407Z,48.87
2018-01-23T02:49:36.205Z,49.60
2018-01-23T02:52:01.953Z,50.50
2018-01-23T02:54:27.718Z,49.50
2018-01-23T02:56:53.491Z,49.10
2018-01-23T02:59:19.271Z,48.53
2018-01-23T03:01:45.038Z,48.97
2018-01-23T03:04:10.788Z,47.73
2018-01-23T03:06:36.567Z,46.23
2018-01-23T03:09:02.334Z,48.50
2018-01-23T03:11:28.087Z,47.93
2018-01-23T03:13:53.863Z,45.97
2018-01-23T03:16:19.671Z,43.90
2018-01-23T03:18:45.418Z,44.90
2018-01-23T03:21:11.179Z,42.77
2018-01-23T03:23:36.939Z,46.03
2018-01-23T03:26:02.715Z,45.23
2018-01-23T03:28:28.472Z,42.80
2018-01-23T03:30:54.256Z,41.97
2018-01-23T03:33:20.062Z,44.17
2018-01-23T03:35:45.830Z,43.97
2018-01-23T03:38:11.572Z,42.00
2018-01-23T03:40:37.344Z,42.37
2018-01-23T03:43:03.083Z,41.60
2018-01-23T03:45:28.855Z,43.40
2018-01-23T03:47:54.615Z,39.70
2018-01-23T03:50:20.382Z,40.77
2018-01-23T03:52:46.134Z,41.13
2018-01-23T03:55:11.900Z,39.10
2018-01-23T03:57:37.643Z,40.77
2018-01-23T04:00:03.410Z,40.90
2018-01-23T04:02:29.151Z,39.20
2018-01-23T04:04:54.892Z,36.50
2018-01-23T04:07:20.663Z,39.27
2018-01-23T04:09:50.439Z,37.23
2018-01-23T04:12:16.208Z,35.25
2018-01-23T04:14:41.952Z,34.77
2018-01-23T04:17:07.722Z,38.10
2018-01-23T04:19:33.480Z,39.37
2018-01-23T04:21:59.244Z,38.13
2018-01-23T04:24:25.002Z,40.00
2018-01-23T04:26:50.780Z,37.93
2018-01-23T04:29:16.535Z,38.30
2018-01-23T04:31:42.299Z,40.80
2018-01-23T04:34:08.088Z,39.93
2018-01-23T04:36:33.846Z,41.33
2018-01-23T04:38:59.590Z,38.50
2018-01-23T04:41:25.347Z,38.97
2018-01-23T04:43:51.090Z,36.80
2018-01-23T04:46:16.863Z,41.17
2018-01-23T04:48:42.611Z,38.63
2018-01-23T04:51:08.369Z,38.13
2018-01-23T04:53:34.138Z,37.37
2018-01-23T04:55:59.909Z,35.87
2018-01-23T04:58:25.654Z,39.20
2018-01-23T05:00:51.416Z,39.73
2018-01-23T05:03:17.198Z,38.33
2018-01-23T05:05:42.949Z,38.93
2018-01-23T05:08:08.707Z,40.97
2018-01-23T05:10:34.462Z,39.23
2018-01-23T05:13:00.231Z,37.73
2018-01-23T05:15:25.979Z,44.30
2018-01-23T05:17:51.730Z,40.10
2018-01-23T05:20:17.480Z,41.17
2018-01-23T05:22:43.231Z,36.10
2018-01-23T05:25:08.975Z,42.47
2018-01-23T05:27:34.719Z,40.40
2018-01-23T05:30:00.455Z,43.20
2018-01-23T05:32:26.219Z,40.23
2018-01-23T05:34:51.968Z,38.57
2018-01-23T05:37:17.754Z,39.10
2018-01-23T05:39:43.487Z,39.63
2018-01-23T05:42:09.232Z,35.27
2018-01-23T05:44:34.998Z,36.23
2018-01-23T05:47:00.755Z,38.47
2018-01-23T05:49:26.519Z,36.70
2018-01-23T05:51:52.270Z,38.37
2018-01-23T05:54:18.018Z,33.57
2018-01-23T05:56:43.791Z,34.27
2018-01-23T05:59:09.543Z,38.63
2018-01-23T06:01:35.315Z,35.80
2018-01-23T06:04:01.127Z,36.00
2018-01-23T06:06:26.885Z,34.87
2018-01-23T06:08:52.663Z,35.47
2018-01-23T06:11:18.420Z,34.00
2018-01-23T06:13:44.192Z,33.73
2018-01-23T06:16:09.938Z,37.37
2018-01-23T06:18:35.701Z,32.80
2018-01-23T06:21:01.461Z,33.63
2018-01-23T06:23:27.213Z,35.77
2018-01-23T06:25:52.972Z,33.87
2018-01-23T06:28:18.731Z,34.43
2018-01-23T06:30:44.491Z,35.73
2018-01-23T06:33:10.263Z,29.60
2018-01-23T06:35:36.044Z,31.10
2018-01-23T06:38:01.796Z,30.23
2018-01-23T06:40:27.580Z,35.23
2018-01-23T06:42:53.319Z,32.37
2018-01-23T06:45:19.100Z,32.43
2018-01-23T06:47:44.862Z,29.50
2018-01-23T06:50:10.633Z,33.30
2018-01-23T06:52:36.394Z,31.57
2018-01-23T06:55:02.175Z,31.73
2018-01-23T06:57:27.924Z,31.67
2018-01-23T06:59:53.705Z,32.00
2018-01-23T07:02:19.458Z,33.97
2018-01-23T07:04:45.198Z,31.90
2018-01-23T07:07:10.956Z,29.50
2018-01-23T07:09:36.712Z,35.53
2018-01-23T07:12:02.483Z,33.03
2018-01-23T07:14:28.241Z,34.97
2018-01-23T07:16:54.015Z,29.77
2018-01-23T07:19:19.785Z,34.43
2018-01-23T07:21:45.551Z,34.97
2018-01-23T07:24:11.308Z,41.37
2018-01-23T07:26:37.083Z,34.23
2018-01-23T07:29:02.836Z,36.83
2018-01-23T07:31:28.622Z,34.50
2018-01-23T07:33:54.371Z,35.90
2018-01-23T07:36:20.142Z,35.83
2018-01-23T07:38:45.891Z,35.67
2018-01-23T07:41:11.654Z,34.67
2018-01-23T07:43:37.427Z,40.53
2018-01-23T07:46:03.196Z,37.53
2018-01-23T07:48:28.955Z,39.60
2018-01-23T07:50:54.703Z,37.43
2018-01-23T07:53:20.495Z,39.30
2018-01-23T07:55:46.248Z,40.93
2018-01-23T07:58:12.010Z,40.83
2018-01-23T08:00:37.751Z,40.63
2018-01-23T08:03:03.512Z,40.50
2018-01-23T08:05:29.260Z,40.10
2018-01-23T08:07:55.020Z,40.10
2018-01-23T08:10:20.788Z,38.43
2018-01-23T08:12:46.523Z,39.63
2018-01-23T08:15:12.275Z,39.30
2018-01-23T08:17:38.035Z,42.30
2018-01-23T08:20:03.778Z,38.43
2018-01-23T08:22:29.523Z,37.90
2018-01-23T08:24:55.259Z,41.03
2018-01-23T08:27:21.007Z,43.57
2018-01-23T08:29:53.711Z,43.43
2018-01-23T08:32:19.455Z,46.22
2018-01-23T08:34:45.200Z,42.47
2018-01-23T08:37:10.943Z,43.10
2018-01-23T08:39:36.683Z,43.33
2018-01-23T08:42:02.506Z,46.40
2018-01-23T08:44:28.255Z,47.50
2018-01-23T08:46:54.010Z,39.97
2018-01-23T08:49:19.783Z,43.97
2018-01-23T08:51:45.526Z,48.67
2018-01-23T08:54:11.287Z,49.13
2018-01-23T08:56:37.048Z,46.50
2018-01-23T08:59:02.811Z,52.60
2018-01-23T09:01:28.571Z,46.47
2018-01-23T09:03:54.349Z,49.17
2018-01-23T09:06:20.108Z,48.27
2018-01-23T09:08:45.883Z,46.70
2018-01-23T09:11:11.627Z,44.70
2018-01-23T09:13:37.388Z,46.97
2018-01-23T09:16:03.160Z,50.13
2018-01-23T09:18:28.910Z,44.43
2018-01-23T09:20:54.651Z,39.67
2018-01-23T09:23:20.424Z,41.63
2018-01-23T09:25:46.167Z,50.50
2018-01-23T09:28:11.907Z,48.03
2018-01-23T09:30:37.667Z,44.10
2018-01-23T09:33:03.424Z,40.07
2018-01-23T09:35:29.244Z,43.27
2018-01-23T09:37:54.966Z,44.40
2018-01-23T09:40:20.734Z,49.37
2018-01-23T09:42:46.512Z,46.50
2018-01-23T09:45:12.275Z,45.83
2018-01-23T09:47:38.036Z,42.63
2018-01-23T09:50:03.807Z,49.30
2018-01-23T09:52:29.570Z,48.00
2018-01-23T09:54:55.353Z,42.57
2018-01-23T09:57:21.116Z,42.10
2018-01-23T09:59:46.875Z,43.40
2018-01-23T10:02:12.637Z,41.60
2018-01-23T10:04:38.387Z,42.47
2018-01-23T10:07:04.154Z,41.60
2018-01-23T10:09:29.915Z,44.93
2018-01-23T10:11:55.674Z,40.90
2018-01-23T10:14:21.415Z,44.07
2018-01-23T10:16:47.167Z,45.20
2018-01-23T10:19:12.915Z,44.57
2018-01-23T10:21:38.692Z,41.80
2018-01-23T10:24:04.472Z,43.77
2018-01-23T10:26:30.235Z,42.67
2018-01-23T10:28:55.970Z,43.10
2018-01-23T10:31:21.727Z,42.60
2018-01-23T10:33:47.474Z,41.77
2018-01-23T10:36:13.216Z,45.03
2018-01-23T10:38:38.987Z,42.07
2018-01-23T10:41:04.741Z,39.80
2018-01-23T10:43:30.478Z,39.27
2018-01-23T10:45:56.218Z,38.27
2018-01-23T10:48:21.975Z,39.03
2018-01-23T10:50:47.719Z,38.07
2018-01-23T10:53:13.476Z,42.40
2018-01-23T10:55:39.239Z,40.23
2018-01-23T10:58:04.996Z,36.57
2018-01-23T11:00:30.767Z,38.07
2018-01-23T11:02:56.539Z,39.90
2018-01-23T11:05:22.303Z,35.67
2018-01-23T11:07:48.071Z,37.00
2018-01-23T11:10:13.828Z,35.63
2018-01-23T11:12:39.599Z,38.53
2018-01-23T11:15:05.347Z,38.73
2018-01-23T11:17:31.100Z,37.07
2018-01-23T11:19:56.869Z,36.77
2018-01-23T11:22:22.647Z,36.67
2018-01-23T11:24:48.388Z,33.80
2018-01-23T11:27:14.139Z,33.73
2018-01-23T11:29:39.892Z,35.67
2018-01-23T11:32:05.631Z,35.10
2018-01-23T11:34:31.383Z,30.07
2018-01-23T11:36:57.131Z,34.83
2018-01-23T11:39:22.888Z,36.53
2018-01-23T11:41:48.638Z,36.97
2018-01-23T11:44:14.398Z,39.47
2018-01-23T11:46:40.147Z,37.13
2018-01-23T11:49:05.905Z,38.87
2018-01-23T11:51:31.701Z,36.07
2018-01-23T11:53:57.439Z,37.03
2018-01-23T11:56:23.216Z,37.67
2018-01-23T11:58:48.978Z,37.50
2018-01-23T12:01:14.745Z,36.83
2018-01-23T12:03:40.541Z,37.73
2018-01-23T12:06:06.300Z,39.73
2018-01-23T12:08:32.052Z,37.70
2018-01-23T12:10:57.828Z,38.83
2018-01-23T12:13:23.584Z,36.77
2018-01-23T12:15:49.342Z,36.07
2018-01-23T12:18:15.103Z,35.30
2018-01-23T12:20:40.887Z,33.13
2018-01-23T12:23:06.648Z,33.63
2018-01-23T12:25:32.419Z,31.70
2018-01-23T12:27:58.219Z,33.00
2018-01-23T12:30:23.980Z,30.73
2018-01-23T12:32:49.726Z,31.37
2018-01-23T12:35:15.491Z,33.50
2018-01-23T12:37:41.248Z,32.37
2018-01-23T12:40:07.015Z,29.13
2018-01-23T12:42:32.775Z,29.37
2018-01-23T12:44:58.558Z,26.23
2018-01-23T12:47:24.319Z,27.90
2018-01-23T12:49:50.063Z,28.27
2018-01-23T12:52:15.818Z,26.77
2018-01-23T12:54:41.567Z,29.13
2018-01-23T12:57:07.355Z,30.90
2018-01-23T12:59:33.116Z,30.93
2018-01-23T13:01:58.894Z,30.63
2018-01-23T13:04:24.663Z,29.27
2018-01-23T13:06:50.432Z,32.43
2018-01-23T13:09:16.188Z,31.00
2018-01-23T13:11:41.951Z,30.17
2018-01-23T13:14:07.707Z,30.63
2018-01-23T13:16:33.460Z,30.07
2018-01-23T13:18:59.209Z,28.43
2018-01-23T13:21:24.967Z,30.57
2018-01-23T13:23:50.728Z,30.80
2018-01-23T13:26:16.478Z,33.53
2018-01-23T13:28:42.247Z,29.07
2018-01-23T13:31:08.000Z,33.20
2018-01-23T13:33:33.767Z,29.60
2018-01-23T13:35:59.526Z,33.70
2018-01-23T13:38:25.287Z,35.23
2018-01-23T13:40:51.050Z,32.60
2018-01-23T13:43:16.810Z,35.27
2018-01-23T13:45:42.575Z,32.57
2018-01-23T13:48:08.335Z,33.83
2018-01-23T13:50:34.091Z,34.23
2018-01-23T13:52:59.847Z,35.37
2018-01-23T13:55:25.620Z,35.33
2018-01-23T13:57:51.397Z,36.63
2018-01-23T14:00:17.151Z,35.17
2018-01-23T14:02:42.915Z,35.60
2018-01-23T14:05:08.665Z,35.20
2018-01-23T14:07:34.426Z,37.90
2018-01-23T14:10:00.198Z,37.87
2018-01-23T14:12:25.958Z,37.73
2018-01-23T14:14:51.715Z,37.77
2018-01-23T14:17:17.467Z,35.80
2018-01-23T14:19:43.231Z,35.90
2018-01-23T14:22:08.987Z,35.10
2018-01-23T14:24:34.747Z,35.27
2018-01-23T14:27:00.502Z,34.33
2018-01-23T14:29:26.259Z,34.10
2018-01-23T14:31:52.002Z,33.47
2018-01-23T14:34:17.763Z,35.53
2018-01-23T14:36:43.524Z,33.20
2018-01-23T14:39:09.303Z,33.57
2018-01-23T14:41:35.052Z,35.30
2018-01-23T14:44:00.815Z,33.97
2018-01-23T14:46:26.587Z,32.57
2018-01-23T14:48:52.396Z,31.47
2018-01-23T14:51:18.143Z,31.23
2018-01-23T14:53:43.894Z,31.57
2018-01-23T14:56:09.657Z,31.70
2018-01-23T14:58:35.419Z,29.33
2018-01-23T15:01:01.183Z,28.47
2018-01-23T15:03:26.939Z,28.40
2018-01-23T15:05:52.709Z,31.30
2018-01-23T15:08:18.471Z,29.53
2018-01-23T15:10:44.229Z,31.33
2018-01-23T15:13:09.962Z,27.93
2018-01-23T15:15:35.719Z,25.40
2018-01-23T15:18:01.454Z,25.17
2018-01-23T15:20:27.221Z,24.70
2018-01-23T15:22:52.966Z,23.30
2018-01-23T15:25:18.723Z,23.40
2018-01-23T15:27:44.467Z,22.93
2018-01-23T15:30:10.226Z,23.20
2018-01-23T15:32:35.975Z,21.80
2018-01-23T15:35:01.722Z,22.33
2018-01-23T15:37:27.475Z,22.40
2018-01-23T15:39:53.219Z,19.43
2018-01-23T15:42:18.969Z,19.57
2018-01-23T15:44:44.746Z,19.13
2018-01-23T15:47:10.507Z,19.43
2018-01-23T15:49:36.266Z,19.57
2018-01-23T15:52:02.033Z,19.17
2018-01-23T15:54:27.783Z,19.80
2018-01-23T15:56:53.555Z,19.27
2018-01-23T15:59:19.307Z,18.77
2018-01-23T16:01:45.055Z,20.57
2018-01-23T16:04:10.794Z,20.57
2018-01-23T16:06:36.572Z,20.07
2018-01-23T16:09:02.333Z,21.07
2018-01-23T16:11:28.085Z,19.53
2018-01-23T16:13:53.833Z,20.27
2018-01-23T16:16:19.580Z,20.50
2018-01-23T16:18:45.331Z,18.10
2018-01-23T16:21:11.075Z,18.50
2018-01-23T16:23:36.839Z,18.40
2018-01-23T16:26:02.609Z,18.90
2018-01-23T16:28:28.363Z,20.00
2018-01-23T16:30:54.101Z,20.27
2018-01-23T16:33:19.863Z,20.30
2018-01-23T16:35:45.614Z,20.30
2018-01-23T16:38:11.364Z,21.37
2018-01-23T16:43:40.086Z,26.85
2018-01-23T16:46:05.843Z,24.17
2018-01-23T16:48:31.611Z,28.47
2018-01-23T16:50:57.382Z,25.47
2018-01-23T16:53:23.170Z,26.40
2018-01-23T16:55:48.944Z,28.43
2018-01-23T16:58:14.737Z,25.80
2018-01-23T17:00:40.528Z,24.40
2018-01-23T17:03:06.318Z,32.03
2018-01-23T17:05:32.078Z,28.73
2018-01-23T17:07:57.842Z,21.10
2018-01-23T17:10:23.614Z,21.73
2018-01-23T17:12:49.379Z,20.83
2018-01-23T17:15:15.164Z,19.17
2018-01-23T17:17:40.919Z,19.07
2018-01-23T17:20:06.714Z,20.53
2018-01-23T17:22:32.483Z,20.57
2018-01-23T17:24:58.267Z,19.37
2018-01-23T17:27:24.042Z,18.73
2018-01-23T17:29:49.834Z,20.20
2018-01-23T17:32:15.638Z,20.50
2018-01-23T17:34:41.394Z,21.30
2018-01-23T17:37:07.179Z,20.33
2018-01-23T17:39:32.955Z,19.10
2018-01-23T17:41:58.731Z,19.90
2018-01-23T17:44:24.502Z,20.53
2018-01-23T17:46:50.279Z,20.37
2018-01-23T17:49:16.051Z,20.90
2018-01-23T17:51:41.824Z,22.47
2018-01-23T17:54:07.596Z,22.27
2018-01-23T17:56:33.394Z,22.30
2018-01-23T17:58:59.159Z,21.50
2018-01-23T18:01:24.946Z,21.37
2018-01-23T18:03:50.720Z,21.60
2018-01-23T18:06:16.523Z,21.57
2018-01-23T18:08:42.289Z,22.97
2018-01-23T18:11:08.059Z,21.93
2018-01-23T18:13:33.829Z,23.57
2018-01-23T18:15:59.615Z,22.63
2018-01-23T18:18:25.388Z,21.40
2018-01-23T18:20:51.159Z,22.20
2018-01-23T18:23:16.942Z,21.43
2018-01-23T18:25:42.741Z,20.57
2018-01-23T18:28:08.495Z,20.43
2018-01-23T18:30:34.259Z,21.60
2018-01-23T18:33:00.040Z,22.90
2018-01-23T18:35:25.790Z,20.83
2018-01-23T18:37:51.550Z,20.60
2018-01-23T18:40:17.342Z,21.37
2018-01-23T18:42:43.270Z,21.20
2018-01-23T18:45:09.052Z,21.10
2018-01-23T18:47:34.834Z,21.73
2018-01-23T18:50:00.609Z,23.13
2018-01-23T18:52:26.382Z,23.70
2018-01-23T18:54:52.384Z,24.07
2018-01-23T18:57:18.224Z,22.60
2018-01-23T18:59:43.987Z,20.80
2018-01-23T19:02:09.755Z,22.87
2018-01-23T19:04:35.514Z,23.20
2018-01-23T19:07:01.286Z,23.93
2018-01-23T19:09:27.050Z,23.23
2018-01-23T19:11:52.843Z,24.10
2018-01-23T19:14:18.599Z,23.07
2018-01-23T19:16:44.365Z,23.80
2018-01-23T19:19:10.185Z,24.63
2018-01-23T19:21:35.974Z,27.07
2018-01-23T19:24:01.771Z,23.13
2018-01-23T19:26:27.563Z,25.10
2018-01-23T19:28:53.334Z,24.77
2018-01-23T19:31:19.094Z,26.00
2018-01-23T19:33:44.883Z,25.57
2018-01-23T19:36:10.655Z,25.63
2018-01-23T19:38:36.792Z,24.93
2018-01-23T19:41:02.587Z,23.95
2018-01-23T19:43:28.357Z,21.37
2018-01-23T19:45:54.942Z,23.80
2018-01-23T19:48:20.727Z,23.80
2018-01-23T19:50:46.487Z,25.67
2018-01-23T19:53:12.279Z,22.57
2018-01-23T19:55:38.528Z,24.97
2018-01-23T19:58:04.282Z,25.20
2018-01-23T20:00:30.062Z,25.13
2018-01-23T20:02:55.871Z,22.07
2018-01-23T20:05:21.628Z,22.37
2018-01-23T20:07:47.402Z,24.07
2018-01-23T20:10:13.196Z,21.20
2018-01-23T20:12:38.975Z,23.23
2018-01-23T20:15:04.780Z,24.10
2018-01-23T20:17:30.546Z,22.93
2018-01-23T20:19:56.332Z,21.20
2018-01-23T20:22:22.099Z,21.57
2018-01-23T20:24:47.930Z,23.20
2018-01-23T20:27:14.189Z,25.27
2018-01-23T20:29:40.011Z,20.20
2018-01-23T20:32:05.782Z,17.03
2018-01-23T20:34:31.679Z,22.83
2018-01-23T20:36:58.097Z,23.30
2018-01-23T20:39:23.923Z,20.20
2018-01-23T20:41:49.752Z,22.60
2018-01-23T20:44:15.564Z,20.37
2018-01-23T20:46:41.502Z,20.37
2018-01-23T20:49:07.259Z,19.93
2018-01-23T20:51:33.300Z,24.30
2018-01-23T20:53:59.065Z,23.02
2018-01-23T20:56:24.831Z,26.10
2018-01-23T20:58:50.588Z,23.13
2018-01-23T21:01:18.546Z,24.63
2018-01-23T21:03:44.306Z,23.67
2018-01-23T21:06:10.072Z,26.47
2018-01-23T21:08:35.859Z,24.93
2018-01-23T21:11:01.610Z,22.73
2018-01-23T21:13:27.370Z,21.73
2018-01-23T21:15:53.142Z,18.63
2018-01-23T21:18:18.951Z,22.97
2018-01-23T21:20:45.144Z,23.10
2018-01-23T21:23:10.955Z,23.08
2018-01-23T21:25:36.819Z,25.90
2018-01-23T21:28:02.793Z,24.83
2018-01-23T21:30:28.566Z,25.53
2018-01-23T21:32:54.447Z,30.17
2018-01-23T21:35:20.195Z,30.33
2018-01-23T21:37:45.967Z,27.53
2018-01-23T21:40:11.739Z,27.97
2018-01-23T21:42:37.518Z,26.27
2018-01-23T21:45:03.450Z,26.67
2018-01-23T21:47:29.227Z,31.00
2018-01-23T21:49:54.991Z,32.33
2018-01-23T21:52:20.791Z,29.93
2018-01-23T21:54:46.623Z,31.27
2018-01-23T21:57:12.407Z,32.33
2018-01-23T21:59:38.159Z,28.70
2018-01-23T22:02:03.930Z,30.90
2018-01-23T22:04:29.703Z,31.30
2018-01-23T22:06:55.474Z,32.83
2018-01-23T22:09:21.260Z,32.80
2018-01-23T22:11:47.026Z,31.20
2018-01-23T22:14:12.799Z,32.83
2018-01-23T22:16:38.571Z,34.40
2018-01-23T22:19:04.367Z,30.87
2018-01-23T22:21:30.107Z,29.83
2018-01-23T22:23:55.859Z,33.97
2018-01-23T22:26:21.708Z,34.83
2018-01-23T22:28:47.438Z,35.30
2018-01-23T22:31:13.446Z,34.23
2018-01-23T22:33:39.199Z,29.87
2018-01-23T22:36:05.213Z,30.97
2018-01-23T22:38:30.974Z,32.35
2018-01-23T22:40:56.920Z,33.03
2018-01-23T22:43:22.694Z,31.13
2018-01-23T22:45:49.055Z,33.00
2018-01-23T22:48:15.773Z,34.75
2018-01-23T22:50:41.562Z,30.52
2018-01-23T22:53:07.330Z,28.33
2018-01-23T22:55:33.107Z,32.30
2018-01-23T22:57:58.884Z,36.20
2018-01-23T23:00:24.659Z,28.77
2018-01-23T23:02:50.458Z,31.37
2018-01-23T23:05:16.222Z,29.60
2018-01-23T23:07:43.272Z,33.87
2018-01-23T23:10:09.027Z,31.95
2018-01-23T23:12:34.850Z,32.60
2018-01-23T23:15:00.622Z,34.00
2018-01-23T23:17:26.398Z,33.07
2018-01-23T23:19:52.147Z,33.77
2018-01-23T23:22:17.927Z,32.53
2018-01-23T23:24:43.680Z,34.23
2018-01-23T23:27:09.457Z,33.03
2018-01-23T23:29:35.230Z,36.43
2018-01-23T23:32:01.001Z,37.70
2018-01-23T23:34:26.778Z,34.50
2018-01-23T23:36:52.546Z,37.00
2018-01-23T23:39:18.323Z,33.07
2018-01-23T23:41:44.087Z,37.93
2018-01-23T23:44:09.874Z,37.77
2018-01-23T23:46:35.646Z,37.97
2018-01-23T23:49:01.428Z,38.87
2018-01-23T23:51:27.196Z,40.20
2018-01-23T23:53:52.962Z,37.83
2018-01-23T23:56:18.748Z,35.27
2018-01-23T23:58:44.524Z,39.77
